sensor_id;sensor_type;location;lat;lon;timestamp;P1;durP1;ratioP1;P2;durP2;ratioP2
34405;SDS011;20658;45.630;8.886;2023-09-19T00:01:33;23.77;;;12.52;;
34405;SDS011;20658;45.630;8.886;2023-09-19T00:04:03;23.92;;;13.23;;
34405;SDS011;20658;45.630;8.886;2023-09-19T00:06:36;26.15;;;12.98;;
34405;SDS011;20658;45.630;8.886;2023-09-19T00:09:05;27.23;;;14.07;;
34405;SDS011;20658;45.630;8.886;2023-09-19T00:11:37;29.00;;;13.77;;
34405;SDS011;20658;45.630;8.886;2023-09-19T00:14:07;25.33;;;13.57;;
34405;SDS011;20658;45.630;8.886;2023-09-19T00:16:36;24.98;;;13.15;;
34405;SDS011;20658;45.630;8.886;2023-09-19T00:19:04;26.08;;;13.40;;
34405;SDS011;20658;45.630;8.886;2023-09-19T00:21:35;27.83;;;13.88;;
34405;SDS011;20658;45.630;8.886;2023-09-19T00:24:05;25.48;;;11.93;;
34405;SDS011;20658;45.630;8.886;2023-09-19T00:26:35;23.10;;;12.75;;
34405;SDS011;20658;45.630;8.886;2023-09-19T00:29:04;23.80;;;12.77;;
34405;SDS011;20658;45.630;8.886;2023-09-19T00:31:35;26.90;;;13.30;;
34405;SDS011;20658;45.630;8.886;2023-09-19T00:34:04;26.45;;;13.77;;
34405;SDS011;20658;45.630;8.886;2023-09-19T00:36:32;26.08;;;12.43;;
34405;SDS011;20658;45.630;8.886;2023-09-19T00:39:01;25.20;;;12.40;;
34405;SDS011;20658;45.630;8.886;2023-09-19T00:41:31;24.00;;;13.15;;
34405;SDS011;20658;45.630;8.886;2023-09-19T00:44:02;18.40;;;9.95;;
34405;SDS011;20658;45.630;8.886;2023-09-19T00:46:32;20.58;;;11.27;;
34405;SDS011;20658;45.630;8.886;2023-09-19T00:49:01;20.17;;;10.45;;
34405;SDS011;20658;45.630;8.886;2023-09-19T00:51:30;21.48;;;9.35;;
34405;SDS011;20658;45.630;8.886;2023-09-19T00:53:58;22.42;;;9.88;;
34405;SDS011;20658;45.630;8.886;2023-09-19T00:56:27;19.35;;;8.80;;
34405;SDS011;20658;45.630;8.886;2023-09-19T00:58:56;18.10;;;8.65;;
34405;SDS011;20658;45.630;8.886;2023-09-19T01:01:26;21.15;;;8.93;;
34405;SDS011;20658;45.630;8.886;2023-09-19T01:03:57;21.38;;;10.00;;
34405;SDS011;20658;45.630;8.886;2023-09-19T01:06:25;19.00;;;8.60;;
34405;SDS011;20658;45.630;8.886;2023-09-19T01:08:54;20.33;;;8.73;;
34405;SDS011;20658;45.630;8.886;2023-09-19T01:11:25;16.50;;;8.38;;
34405;SDS011;20658;45.630;8.886;2023-09-19T01:14:02;20.17;;;9.38;;
34405;SDS011;20658;45.630;8.886;2023-09-19T01:16:47;20.50;;;9.85;;
34405;SDS011;20658;45.630;8.886;2023-09-19T01:22:41;22.02;;;9.68;;
34405;SDS011;20658;45.630;8.886;2023-09-19T01:28:39;24.42;;;8.77;;
34405;SDS011;20658;45.630;8.886;2023-09-19T01:31:23;18.67;;;9.02;;
34405;SDS011;20658;45.630;8.886;2023-09-19T01:33:57;15.77;;;7.90;;
34405;SDS011;20658;45.630;8.886;2023-09-19T01:36:27;16.45;;;7.65;;
34405;SDS011;20658;45.630;8.886;2023-09-19T01:39:06;14.68;;;6.90;;
34405;SDS011;20658;45.630;8.886;2023-09-19T01:44:38;13.50;;;6.50;;
34405;SDS011;20658;45.630;8.886;2023-09-19T01:47:28;14.55;;;6.07;;
34405;SDS011;20658;45.630;8.886;2023-09-19T01:50:04;16.80;;;6.05;;
34405;SDS011;20658;45.630;8.886;2023-09-19T01:52:42;10.90;;;5.35;;
34405;SDS011;20658;45.630;8.886;2023-09-19T01:55:21;15.68;;;6.10;;
34405;SDS011;20658;45.630;8.886;2023-09-19T01:57:54;15.90;;;5.78;;
34405;SDS011;20658;45.630;8.886;2023-09-19T02:00:39;15.82;;;4.95;;
34405;SDS011;20658;45.630;8.886;2023-09-19T02:03:12;12.98;;;4.95;;
34405;SDS011;20658;45.630;8.886;2023-09-19T02:05:42;12.05;;;4.93;;
34405;SDS011;20658;45.630;8.886;2023-09-19T02:08:18;10.07;;;4.82;;
34405;SDS011;20658;45.630;8.886;2023-09-19T02:10:50;12.45;;;4.88;;
34405;SDS011;20658;45.630;8.886;2023-09-19T02:13:19;11.63;;;5.00;;
34405;SDS011;20658;45.630;8.886;2023-09-19T02:15:50;17.42;;;5.22;;
34405;SDS011;20658;45.630;8.886;2023-09-19T02:18:20;11.32;;;5.05;;
34405;SDS011;20658;45.630;8.886;2023-09-19T02:20:48;12.88;;;5.28;;
34405;SDS011;20658;45.630;8.886;2023-09-19T02:23:24;12.80;;;5.47;;
34405;SDS011;20658;45.630;8.886;2023-09-19T02:25:58;12.32;;;5.22;;
34405;SDS011;20658;45.630;8.886;2023-09-19T02:28:32;19.15;;;5.43;;
34405;SDS011;20658;45.630;8.886;2023-09-19T02:31:08;16.15;;;5.30;;
34405;SDS011;20658;45.630;8.886;2023-09-19T02:33:38;11.38;;;4.82;;
34405;SDS011;20658;45.630;8.886;2023-09-19T02:36:12;12.98;;;5.22;;
34405;SDS011;20658;45.630;8.886;2023-09-19T02:38:43;10.05;;;4.28;;
34405;SDS011;20658;45.630;8.886;2023-09-19T02:41:12;11.93;;;4.57;;
34405;SDS011;20658;45.630;8.886;2023-09-19T02:43:40;20.20;;;5.22;;
34405;SDS011;20658;45.630;8.886;2023-09-19T02:46:10;13.77;;;4.90;;
34405;SDS011;20658;45.630;8.886;2023-09-19T02:48:45;12.57;;;4.88;;
34405;SDS011;20658;45.630;8.886;2023-09-19T02:51:19;17.65;;;5.20;;
34405;SDS011;20658;45.630;8.886;2023-09-19T02:53:53;12.05;;;5.30;;
34405;SDS011;20658;45.630;8.886;2023-09-19T02:56:26;14.70;;;4.88;;
34405;SDS011;20658;45.630;8.886;2023-09-19T02:59:00;11.00;;;4.43;;
34405;SDS011;20658;45.630;8.886;2023-09-19T03:01:35;11.23;;;3.50;;
34405;SDS011;20658;45.630;8.886;2023-09-19T03:04:06;11.35;;;4.80;;
34405;SDS011;20658;45.630;8.886;2023-09-19T03:06:35;12.40;;;4.30;;
34405;SDS011;20658;45.630;8.886;2023-09-19T03:09:04;15.32;;;4.00;;
34405;SDS011;20658;45.630;8.886;2023-09-19T03:11:43;13.82;;;4.47;;
34405;SDS011;20658;45.630;8.886;2023-09-19T03:14:12;11.75;;;4.32;;
34405;SDS011;20658;45.630;8.886;2023-09-19T03:16:42;9.13;;;4.55;;
34405;SDS011;20658;45.630;8.886;2023-09-19T03:19:13;9.93;;;4.53;;
34405;SDS011;20658;45.630;8.886;2023-09-19T03:21:43;9.30;;;4.03;;
34405;SDS011;20658;45.630;8.886;2023-09-19T03:24:12;9.80;;;4.03;;
34405;SDS011;20658;45.630;8.886;2023-09-19T03:26:40;11.73;;;4.90;;
34405;SDS011;20658;45.630;8.886;2023-09-19T03:29:10;10.68;;;4.68;;
34405;SDS011;20658;45.630;8.886;2023-09-19T03:31:40;11.48;;;4.88;;
34405;SDS011;20658;45.630;8.886;2023-09-19T03:34:15;11.57;;;4.30;;
34405;SDS011;20658;45.630;8.886;2023-09-19T03:36:49;10.85;;;4.75;;
34405;SDS011;20658;45.630;8.886;2023-09-19T03:39:17;11.02;;;4.15;;
34405;SDS011;20658;45.630;8.886;2023-09-19T03:41:46;12.50;;;4.40;;
34405;SDS011;20658;45.630;8.886;2023-09-19T03:44:21;10.90;;;4.30;;
34405;SDS011;20658;45.630;8.886;2023-09-19T03:46:54;12.13;;;4.30;;
34405;SDS011;20658;45.630;8.886;2023-09-19T03:49:24;15.90;;;5.93;;
34405;SDS011;20658;45.630;8.886;2023-09-19T03:51:53;11.60;;;5.50;;
34405;SDS011;20658;45.630;8.886;2023-09-19T03:54:21;15.52;;;5.80;;
34405;SDS011;20658;45.630;8.886;2023-09-19T03:56:50;14.13;;;5.90;;
34405;SDS011;20658;45.630;8.886;2023-09-19T03:59:19;14.32;;;5.53;;
34405;SDS011;20658;45.630;8.886;2023-09-19T04:01:53;14.13;;;5.60;;
34405;SDS011;20658;45.630;8.886;2023-09-19T04:04:29;15.73;;;4.95;;
34405;SDS011;20658;45.630;8.886;2023-09-19T04:07:03;11.90;;;4.95;;
34405;SDS011;20658;45.630;8.886;2023-09-19T04:09:36;11.32;;;4.28;;
34405;SDS011;20658;45.630;8.886;2023-09-19T04:12:10;11.07;;;4.40;;
34405;SDS011;20658;45.630;8.886;2023-09-19T04:14:39;14.75;;;4.88;;
34405;SDS011;20658;45.630;8.886;2023-09-19T04:17:08;14.55;;;4.78;;
34405;SDS011;20658;45.630;8.886;2023-09-19T04:19:38;10.23;;;3.65;;
34405;SDS011;20658;45.630;8.886;2023-09-19T04:22:08;11.35;;;3.88;;
34405;SDS011;20658;45.630;8.886;2023-09-19T04:24:42;12.85;;;3.45;;
34405;SDS011;20658;45.630;8.886;2023-09-19T04:27:11;14.30;;;4.38;;
34405;SDS011;20658;45.630;8.886;2023-09-19T04:29:41;12.82;;;4.38;;
34405;SDS011;20658;45.630;8.886;2023-09-19T04:32:10;15.00;;;4.72;;
34405;SDS011;20658;45.630;8.886;2023-09-19T04:34:46;9.88;;;3.97;;
34405;SDS011;20658;45.630;8.886;2023-09-19T04:37:16;5.82;;;3.58;;
34405;SDS011;20658;45.630;8.886;2023-09-19T04:39:45;10.05;;;4.13;;
34405;SDS011;20658;45.630;8.886;2023-09-19T04:42:13;14.23;;;5.03;;
34405;SDS011;20658;45.630;8.886;2023-09-19T04:44:47;9.43;;;3.97;;
34405;SDS011;20658;45.630;8.886;2023-09-19T04:47:16;11.77;;;4.75;;
34405;SDS011;20658;45.630;8.886;2023-09-19T04:49:46;16.10;;;4.90;;
34405;SDS011;20658;45.630;8.886;2023-09-19T04:52:15;13.55;;;5.25;;
34405;SDS011;20658;45.630;8.886;2023-09-19T04:54:43;18.30;;;6.25;;
34405;SDS011;20658;45.630;8.886;2023-09-19T04:57:17;15.93;;;6.05;;
34405;SDS011;20658;45.630;8.886;2023-09-19T04:59:46;15.10;;;5.80;;
34405;SDS011;20658;45.630;8.886;2023-09-19T05:02:19;14.27;;;5.47;;
34405;SDS011;20658;45.630;8.886;2023-09-19T05:04:49;25.60;;;8.45;;
34405;SDS011;20658;45.630;8.886;2023-09-19T05:07:25;21.63;;;7.43;;
34405;SDS011;20658;45.630;8.886;2023-09-19T05:09:58;14.05;;;5.07;;
34405;SDS011;20658;45.630;8.886;2023-09-19T05:12:26;12.93;;;4.80;;
34405;SDS011;20658;45.630;8.886;2023-09-19T05:14:56;10.63;;;4.55;;
34405;SDS011;20658;45.630;8.886;2023-09-19T05:17:29;8.13;;;4.18;;
34405;SDS011;20658;45.630;8.886;2023-09-19T05:20:06;9.25;;;3.72;;
34405;SDS011;20658;45.630;8.886;2023-09-19T05:22:44;11.80;;;5.20;;
34405;SDS011;20658;45.630;8.886;2023-09-19T05:25:12;7.35;;;3.70;;
34405;SDS011;20658;45.630;8.886;2023-09-19T05:27:47;12.45;;;4.22;;
34405;SDS011;20658;45.630;8.886;2023-09-19T05:30:22;10.30;;;3.65;;
34405;SDS011;20658;45.630;8.886;2023-09-19T05:32:50;13.27;;;4.22;;
34405;SDS011;20658;45.630;8.886;2023-09-19T05:35:25;10.60;;;3.88;;
34405;SDS011;20658;45.630;8.886;2023-09-19T05:37:54;15.55;;;4.18;;
34405;SDS011;20658;45.630;8.886;2023-09-19T05:40:22;14.88;;;3.95;;
34405;SDS011;20658;45.630;8.886;2023-09-19T05:42:51;11.95;;;5.03;;
34405;SDS011;20658;45.630;8.886;2023-09-19T05:45:20;15.77;;;5.82;;
34405;SDS011;20658;45.630;8.886;2023-09-19T05:47:49;12.10;;;4.78;;
34405;SDS011;20658;45.630;8.886;2023-09-19T05:50:28;8.20;;;4.30;;
34405;SDS011;20658;45.630;8.886;2023-09-19T05:55:27;10.30;;;4.32;;
34405;SDS011;20658;45.630;8.886;2023-09-19T05:57:56;7.78;;;4.45;;
34405;SDS011;20658;45.630;8.886;2023-09-19T06:00:29;9.35;;;4.38;;
34405;SDS011;20658;45.630;8.886;2023-09-19T06:03:03;7.30;;;4.03;;
34405;SDS011;20658;45.630;8.886;2023-09-19T06:05:38;13.38;;;4.53;;
34405;SDS011;20658;45.630;8.886;2023-09-19T06:08:08;11.87;;;4.97;;
34405;SDS011;20658;45.630;8.886;2023-09-19T06:10:36;14.07;;;5.88;;
34405;SDS011;20658;45.630;8.886;2023-09-19T06:13:10;12.50;;;4.60;;
34405;SDS011;20658;45.630;8.886;2023-09-19T06:15:38;11.60;;;4.40;;
34405;SDS011;20658;45.630;8.886;2023-09-19T06:18:12;11.82;;;4.32;;
34405;SDS011;20658;45.630;8.886;2023-09-19T06:20:47;9.55;;;3.08;;
34405;SDS011;20658;45.630;8.886;2023-09-19T06:23:17;9.25;;;3.58;;
34405;SDS011;20658;45.630;8.886;2023-09-19T06:25:49;10.82;;;4.03;;
34405;SDS011;20658;45.630;8.886;2023-09-19T06:28:17;10.77;;;3.75;;
34405;SDS011;20658;45.630;8.886;2023-09-19T06:30:50;10.82;;;3.88;;
34405;SDS011;20658;45.630;8.886;2023-09-19T06:33:19;16.17;;;4.18;;
34405;SDS011;20658;45.630;8.886;2023-09-19T06:35:49;8.43;;;3.20;;
34405;SDS011;20658;45.630;8.886;2023-09-19T06:38:19;12.07;;;3.10;;
34405;SDS011;20658;45.630;8.886;2023-09-19T06:40:48;9.45;;;3.05;;
34405;SDS011;20658;45.630;8.886;2023-09-19T06:43:22;9.18;;;3.42;;
34405;SDS011;20658;45.630;8.886;2023-09-19T06:45:56;8.85;;;3.13;;
34405;SDS011;20658;45.630;8.886;2023-09-19T06:48:26;10.05;;;3.20;;
34405;SDS011;20658;45.630;8.886;2023-09-19T06:50:57;7.55;;;2.80;;
34405;SDS011;20658;45.630;8.886;2023-09-19T06:53:34;11.52;;;3.55;;
34405;SDS011;20658;45.630;8.886;2023-09-19T06:56:03;12.10;;;3.20;;
34405;SDS011;20658;45.630;8.886;2023-09-19T06:58:32;9.25;;;2.85;;
34405;SDS011;20658;45.630;8.886;2023-09-19T07:01:08;14.73;;;3.28;;
34405;SDS011;20658;45.630;8.886;2023-09-19T07:03:41;9.73;;;3.00;;
34405;SDS011;20658;45.630;8.886;2023-09-19T07:06:18;7.82;;;2.67;;
34405;SDS011;20658;45.630;8.886;2023-09-19T07:08:47;9.45;;;3.00;;
34405;SDS011;20658;45.630;8.886;2023-09-19T07:11:21;9.00;;;3.10;;
34405;SDS011;20658;45.630;8.886;2023-09-19T07:13:50;11.13;;;3.40;;
34405;SDS011;20658;45.630;8.886;2023-09-19T07:16:19;10.93;;;2.80;;
34405;SDS011;20658;45.630;8.886;2023-09-19T07:19:01;7.57;;;2.75;;
34405;SDS011;20658;45.630;8.886;2023-09-19T07:21:31;12.57;;;2.67;;
34405;SDS011;20658;45.630;8.886;2023-09-19T07:24:07;9.00;;;2.92;;
34405;SDS011;20658;45.630;8.886;2023-09-19T07:26:40;7.00;;;2.70;;
34405;SDS011;20658;45.630;8.886;2023-09-19T07:29:14;7.40;;;2.83;;
34405;SDS011;20658;45.630;8.886;2023-09-19T07:31:43;7.63;;;2.47;;
34405;SDS011;20658;45.630;8.886;2023-09-19T07:34:13;8.55;;;3.00;;
34405;SDS011;20658;45.630;8.886;2023-09-19T07:36:43;7.20;;;2.30;;
34405;SDS011;20658;45.630;8.886;2023-09-19T07:39:18;12.55;;;3.42;;
34405;SDS011;20658;45.630;8.886;2023-09-19T07:41:52;11.73;;;2.88;;
34405;SDS011;20658;45.630;8.886;2023-09-19T07:44:26;5.93;;;2.30;;
34405;SDS011;20658;45.630;8.886;2023-09-19T07:47:00;9.13;;;2.75;;
34405;SDS011;20658;45.630;8.886;2023-09-19T07:49:29;6.22;;;2.50;;
34405;SDS011;20658;45.630;8.886;2023-09-19T07:51:59;8.30;;;2.70;;
34405;SDS011;20658;45.630;8.886;2023-09-19T07:54:34;16.80;;;2.97;;
34405;SDS011;20658;45.630;8.886;2023-09-19T07:57:03;11.55;;;3.00;;
34405;SDS011;20658;45.630;8.886;2023-09-19T07:59:32;12.68;;;3.15;;
34405;SDS011;20658;45.630;8.886;2023-09-19T08:02:00;10.18;;;2.33;;
34405;SDS011;20658;45.630;8.886;2023-09-19T08:04:31;7.88;;;2.38;;
34405;SDS011;20658;45.630;8.886;2023-09-19T08:07:06;5.82;;;2.08;;
34405;SDS011;20658;45.630;8.886;2023-09-19T08:09:40;9.82;;;2.45;;
34405;SDS011;20658;45.630;8.886;2023-09-19T08:12:12;7.00;;;2.00;;
34405;SDS011;20658;45.630;8.886;2023-09-19T08:14:46;9.85;;;2.63;;
34405;SDS011;20658;45.630;8.886;2023-09-19T08:17:15;7.68;;;2.20;;
34405;SDS011;20658;45.630;8.886;2023-09-19T08:19:44;7.28;;;2.40;;
34405;SDS011;20658;45.630;8.886;2023-09-19T08:22:20;7.57;;;2.92;;
34405;SDS011;20658;45.630;8.886;2023-09-19T08:24:50;10.45;;;2.55;;
34405;SDS011;20658;45.630;8.886;2023-09-19T08:27:23;7.22;;;2.53;;
34405;SDS011;20658;45.630;8.886;2023-09-19T08:29:53;8.80;;;2.67;;
34405;SDS011;20658;45.630;8.886;2023-09-19T08:32:21;7.55;;;2.80;;
34405;SDS011;20658;45.630;8.886;2023-09-19T08:34:52;7.78;;;2.53;;
34405;SDS011;20658;45.630;8.886;2023-09-19T08:37:27;9.73;;;3.05;;
34405;SDS011;20658;45.630;8.886;2023-09-19T08:39:56;8.90;;;2.65;;
34405;SDS011;20658;45.630;8.886;2023-09-19T08:42:24;5.50;;;2.35;;
34405;SDS011;20658;45.630;8.886;2023-09-19T08:44:58;6.82;;;2.35;;
34405;SDS011;20658;45.630;8.886;2023-09-19T08:47:34;12.05;;;3.22;;
34405;SDS011;20658;45.630;8.886;2023-09-19T08:50:15;7.90;;;2.97;;
34405;SDS011;20658;45.630;8.886;2023-09-19T08:53:00;10.70;;;3.28;;
34405;SDS011;20658;45.630;8.886;2023-09-19T08:55:29;10.52;;;2.50;;
34405;SDS011;20658;45.630;8.886;2023-09-19T08:58:00;4.22;;;1.70;;
34405;SDS011;20658;45.630;8.886;2023-09-19T09:00:33;9.65;;;2.42;;
34405;SDS011;20658;45.630;8.886;2023-09-19T09:03:02;9.98;;;1.90;;
34405;SDS011;20658;45.630;8.886;2023-09-19T09:05:33;8.02;;;1.75;;
34405;SDS011;20658;45.630;8.886;2023-09-19T09:08:08;10.90;;;2.50;;
34405;SDS011;20658;45.630;8.886;2023-09-19T09:10:37;8.52;;;2.35;;
34405;SDS011;20658;45.630;8.886;2023-09-19T09:13:07;11.68;;;1.70;;
34405;SDS011;20658;45.630;8.886;2023-09-19T09:15:40;6.63;;;1.60;;
34405;SDS011;20658;45.630;8.886;2023-09-19T09:18:11;5.35;;;1.38;;
34405;SDS011;20658;45.630;8.886;2023-09-19T09:20:39;2.50;;;1.33;;
34405;SDS011;20658;45.630;8.886;2023-09-19T09:23:09;5.10;;;1.42;;
34405;SDS011;20658;45.630;8.886;2023-09-19T09:25:49;9.40;;;2.25;;
34405;SDS011;20658;45.630;8.886;2023-09-19T09:28:46;12.20;;;2.78;;
34405;SDS011;20658;45.630;8.886;2023-09-19T09:31:24;8.85;;;2.05;;
34405;SDS011;20658;45.630;8.886;2023-09-19T09:33:53;7.45;;;1.88;;
34405;SDS011;20658;45.630;8.886;2023-09-19T09:36:34;7.93;;;1.83;;
34405;SDS011;20658;45.630;8.886;2023-09-19T09:39:10;7.32;;;1.40;;
34405;SDS011;20658;45.630;8.886;2023-09-19T09:41:51;5.63;;;2.00;;
34405;SDS011;20658;45.630;8.886;2023-09-19T09:44:19;7.93;;;1.67;;
34405;SDS011;20658;45.630;8.886;2023-09-19T09:46:53;6.50;;;1.73;;
34405;SDS011;20658;45.630;8.886;2023-09-19T09:49:49;5.85;;;1.45;;
34405;SDS011;20658;45.630;8.886;2023-09-19T09:52:43;6.95;;;1.75;;
34405;SDS011;20658;45.630;8.886;2023-09-19T09:55:20;8.55;;;1.70;;
34405;SDS011;20658;45.630;8.886;2023-09-19T09:58:02;4.63;;;1.52;;
34405;SDS011;20658;45.630;8.886;2023-09-19T10:00:52;5.85;;;1.27;;
34405;SDS011;20658;45.630;8.886;2023-09-19T10:03:33;10.15;;;1.77;;
34405;SDS011;20658;45.630;8.886;2023-09-19T10:06:06;7.15;;;1.30;;
34405;SDS011;20658;45.630;8.886;2023-09-19T10:08:58;8.15;;;1.77;;
34405;SDS011;20658;45.630;8.886;2023-09-19T10:11:40;3.60;;;1.60;;
34405;SDS011;20658;45.630;8.886;2023-09-19T10:14:16;8.23;;;1.90;;
34405;SDS011;20658;45.630;8.886;2023-09-19T10:16:51;4.47;;;1.50;;
34405;SDS011;20658;45.630;8.886;2023-09-19T10:19:33;7.05;;;2.28;;
34405;SDS011;20658;45.630;8.886;2023-09-19T10:22:11;22.13;;;2.20;;
34405;SDS011;20658;45.630;8.886;2023-09-19T10:24:43;3.85;;;1.38;;
34405;SDS011;20658;45.630;8.886;2023-09-19T10:27:15;5.17;;;1.40;;
34405;SDS011;20658;45.630;8.886;2023-09-19T10:29:46;7.65;;;1.90;;
34405;SDS011;20658;45.630;8.886;2023-09-19T10:32:25;7.55;;;1.98;;
34405;SDS011;20658;45.630;8.886;2023-09-19T10:35:04;5.90;;;1.58;;
34405;SDS011;20658;45.630;8.886;2023-09-19T10:37:35;5.53;;;1.73;;
34405;SDS011;20658;45.630;8.886;2023-09-19T10:40:10;9.20;;;2.45;;
34405;SDS011;20658;45.630;8.886;2023-09-19T10:42:46;5.90;;;1.70;;
34405;SDS011;20658;45.630;8.886;2023-09-19T10:45:22;9.02;;;2.10;;
34405;SDS011;20658;45.630;8.886;2023-09-19T10:47:52;8.13;;;1.98;;
34405;SDS011;20658;45.630;8.886;2023-09-19T10:50:29;8.05;;;1.92;;
34405;SDS011;20658;45.630;8.886;2023-09-19T10:53:06;7.47;;;1.95;;
34405;SDS011;20658;45.630;8.886;2023-09-19T10:55:37;6.15;;;1.92;;
34405;SDS011;20658;45.630;8.886;2023-09-19T10:58:08;8.07;;;2.38;;
34405;SDS011;20658;45.630;8.886;2023-09-19T11:00:51;7.30;;;1.75;;
34405;SDS011;20658;45.630;8.886;2023-09-19T11:03:22;4.22;;;1.40;;
34405;SDS011;20658;45.630;8.886;2023-09-19T11:06:00;7.32;;;1.70;;
34405;SDS011;20658;45.630;8.886;2023-09-19T11:08:57;7.88;;;2.08;;
34405;SDS011;20658;45.630;8.886;2023-09-19T11:11:53;4.40;;;1.83;;
34405;SDS011;20658;45.630;8.886;2023-09-19T11:14:32;10.17;;;2.40;;
34405;SDS011;20658;45.630;8.886;2023-09-19T11:20:20;5.07;;;1.83;;
34405;SDS011;20658;45.630;8.886;2023-09-19T11:23:19;7.55;;;1.85;;
34405;SDS011;20658;45.630;8.886;2023-09-19T11:26:02;5.55;;;1.90;;
34405;SDS011;20658;45.630;8.886;2023-09-19T11:28:31;6.22;;;2.08;;
34405;SDS011;20658;45.630;8.886;2023-09-19T11:40:46;6.00;;;2.63;;
34405;SDS011;20658;45.630;8.886;2023-09-19T11:47:08;6.72;;;2.10;;
34405;SDS011;20658;45.630;8.886;2023-09-19T11:49:40;5.65;;;2.70;;
34405;SDS011;20658;45.630;8.886;2023-09-19T11:52:18;7.47;;;2.40;;
34405;SDS011;20658;45.630;8.886;2023-09-19T11:54:54;5.00;;;2.85;;
34405;SDS011;20658;45.630;8.886;2023-09-19T11:57:24;9.30;;;2.30;;
34405;SDS011;20658;45.630;8.886;2023-09-19T11:59:53;7.60;;;2.80;;
34405;SDS011;20658;45.630;8.886;2023-09-19T12:02:31;7.57;;;2.35;;
34405;SDS011;20658;45.630;8.886;2023-09-19T12:05:09;9.02;;;2.25;;
34405;SDS011;20658;45.630;8.886;2023-09-19T12:07:44;12.40;;;2.83;;
34405;SDS011;20658;45.630;8.886;2023-09-19T12:10:19;6.20;;;2.20;;
34405;SDS011;20658;45.630;8.886;2023-09-19T12:12:55;6.43;;;2.20;;
34405;SDS011;20658;45.630;8.886;2023-09-19T12:15:30;7.35;;;2.28;;
34405;SDS011;20658;45.630;8.886;2023-09-19T12:18:12;6.60;;;2.40;;
34405;SDS011;20658;45.630;8.886;2023-09-19T12:20:59;8.77;;;2.28;;
34405;SDS011;20658;45.630;8.886;2023-09-19T12:23:29;4.97;;;2.17;;
34405;SDS011;20658;45.630;8.886;2023-09-19T12:25:57;8.38;;;2.35;;
34405;SDS011;20658;45.630;8.886;2023-09-19T12:28:31;9.30;;;2.83;;
34405;SDS011;20658;45.630;8.886;2023-09-19T12:31:13;8.13;;;1.90;;
34405;SDS011;20658;45.630;8.886;2023-09-19T12:33:46;11.02;;;2.85;;
34405;SDS011;20658;45.630;8.886;2023-09-19T12:36:21;4.82;;;2.08;;
34405;SDS011;20658;45.630;8.886;2023-09-19T12:38:56;6.25;;;1.98;;
34405;SDS011;20658;45.630;8.886;2023-09-19T12:41:25;9.18;;;2.35;;
34405;SDS011;20658;45.630;8.886;2023-09-19T12:43:54;5.05;;;1.98;;
34405;SDS011;20658;45.630;8.886;2023-09-19T12:46:29;9.18;;;2.80;;
34405;SDS011;20658;45.630;8.886;2023-09-19T12:51:54;8.23;;;2.53;;
34405;SDS011;20658;45.630;8.886;2023-09-19T12:54:37;9.57;;;2.35;;
34405;SDS011;20658;45.630;8.886;2023-09-19T12:57:06;7.20;;;2.35;;
34405;SDS011;20658;45.630;8.886;2023-09-19T12:59:40;6.80;;;2.22;;
34405;SDS011;20658;45.630;8.886;2023-09-19T13:02:16;5.38;;;2.17;;
34405;SDS011;20658;45.630;8.886;2023-09-19T13:10:31;6.53;;;1.92;;
34405;SDS011;20658;45.630;8.886;2023-09-19T13:16:00;6.57;;;2.40;;
34405;SDS011;20658;45.630;8.886;2023-09-19T13:18:30;6.90;;;2.55;;
34405;SDS011;20658;45.630;8.886;2023-09-19T13:21:09;6.60;;;2.55;;
34405;SDS011;20658;45.630;8.886;2023-09-19T13:23:46;3.20;;;1.92;;
34405;SDS011;20658;45.630;8.886;2023-09-19T13:26:19;4.32;;;1.77;;
34405;SDS011;20658;45.630;8.886;2023-09-19T13:28:49;5.88;;;2.20;;
34405;SDS011;20658;45.630;8.886;2023-09-19T13:31:22;6.47;;;1.98;;
34405;SDS011;20658;45.630;8.886;2023-09-19T13:33:56;10.20;;;2.17;;
34405;SDS011;20658;45.630;8.886;2023-09-19T13:36:26;11.30;;;2.42;;
34405;SDS011;20658;45.630;8.886;2023-09-19T13:39:00;7.45;;;2.38;;
34405;SDS011;20658;45.630;8.886;2023-09-19T13:41:29;6.22;;;2.10;;
34405;SDS011;20658;45.630;8.886;2023-09-19T13:44:05;7.53;;;2.67;;
34405;SDS011;20658;45.630;8.886;2023-09-19T13:46:41;5.57;;;1.80;;
34405;SDS011;20658;45.630;8.886;2023-09-19T13:49:17;4.97;;;2.28;;
34405;SDS011;20658;45.630;8.886;2023-09-19T13:51:52;5.82;;;2.20;;
34405;SDS011;20658;45.630;8.886;2023-09-19T13:54:22;5.03;;;1.88;;
34405;SDS011;20658;45.630;8.886;2023-09-19T13:56:50;7.88;;;1.92;;
34405;SDS011;20658;45.630;8.886;2023-09-19T13:59:24;6.05;;;2.55;;
34405;SDS011;20658;45.630;8.886;2023-09-19T14:01:55;5.13;;;1.92;;
34405;SDS011;20658;45.630;8.886;2023-09-19T14:04:23;7.15;;;2.03;;
34405;SDS011;20658;45.630;8.886;2023-09-19T14:06:53;9.25;;;2.38;;
34405;SDS011;20658;45.630;8.886;2023-09-19T14:09:23;8.02;;;2.05;;
34405;SDS011;20658;45.630;8.886;2023-09-19T14:11:57;10.07;;;2.28;;
34405;SDS011;20658;45.630;8.886;2023-09-19T14:14:25;5.70;;;2.45;;
34405;SDS011;20658;45.630;8.886;2023-09-19T14:17:07;4.05;;;1.88;;
34405;SDS011;20658;45.630;8.886;2023-09-19T14:19:48;4.80;;;2.05;;
34405;SDS011;20658;45.630;8.886;2023-09-19T14:22:18;10.23;;;2.75;;
34405;SDS011;20658;45.630;8.886;2023-09-19T14:24:47;7.90;;;2.53;;
34405;SDS011;20658;45.630;8.886;2023-09-19T14:27:20;13.60;;;2.42;;
34405;SDS011;20658;45.630;8.886;2023-09-19T14:29:54;5.20;;;2.05;;
34405;SDS011;20658;45.630;8.886;2023-09-19T14:32:23;6.50;;;2.30;;
34405;SDS011;20658;45.630;8.886;2023-09-19T14:34:52;5.00;;;1.60;;
34405;SDS011;20658;45.630;8.886;2023-09-19T14:37:22;4.65;;;1.65;;
34405;SDS011;20658;45.630;8.886;2023-09-19T14:39:51;6.32;;;2.10;;
34405;SDS011;20658;45.630;8.886;2023-09-19T14:42:19;6.10;;;1.75;;
34405;SDS011;20658;45.630;8.886;2023-09-19T14:44:48;4.90;;;2.15;;
34405;SDS011;20658;45.630;8.886;2023-09-19T14:47:16;5.78;;;2.10;;
34405;SDS011;20658;45.630;8.886;2023-09-19T14:49:52;6.32;;;1.88;;
34405;SDS011;20658;45.630;8.886;2023-09-19T14:52:28;8.05;;;2.00;;
34405;SDS011;20658;45.630;8.886;2023-09-19T14:54:56;3.78;;;1.90;;
34405;SDS011;20658;45.630;8.886;2023-09-19T14:57:24;8.30;;;2.38;;
34405;SDS011;20658;45.630;8.886;2023-09-19T14:59:58;8.23;;;1.90;;
34405;SDS011;20658;45.630;8.886;2023-09-19T15:02:31;8.20;;;1.73;;
34405;SDS011;20658;45.630;8.886;2023-09-19T15:05:01;5.60;;;1.80;;
34405;SDS011;20658;45.630;8.886;2023-09-19T15:07:31;4.15;;;1.90;;
34405;SDS011;20658;45.630;8.886;2023-09-19T15:10:04;6.28;;;1.55;;
34405;SDS011;20658;45.630;8.886;2023-09-19T15:12:41;6.35;;;2.03;;
34405;SDS011;20658;45.630;8.886;2023-09-19T15:15:14;5.35;;;1.95;;
34405;SDS011;20658;45.630;8.886;2023-09-19T15:17:48;3.33;;;1.45;;
34405;SDS011;20658;45.630;8.886;2023-09-19T15:20:16;3.95;;;1.88;;
34405;SDS011;20658;45.630;8.886;2023-09-19T15:22:51;7.30;;;2.08;;
34405;SDS011;20658;45.630;8.886;2023-09-19T15:25:25;8.80;;;2.17;;
34405;SDS011;20658;45.630;8.886;2023-09-19T15:27:58;6.78;;;2.08;;
34405;SDS011;20658;45.630;8.886;2023-09-19T15:30:38;6.68;;;2.10;;
34405;SDS011;20658;45.630;8.886;2023-09-19T15:33:07;8.13;;;2.38;;
34405;SDS011;20658;45.630;8.886;2023-09-19T15:35:36;8.18;;;3.20;;
34405;SDS011;20658;45.630;8.886;2023-09-19T15:38:06;8.45;;;2.83;;
34405;SDS011;20658;45.630;8.886;2023-09-19T15:40:45;15.00;;;3.72;;
34405;SDS011;20658;45.630;8.886;2023-09-19T15:43:19;7.60;;;3.22;;
34405;SDS011;20658;45.630;8.886;2023-09-19T15:45:49;10.27;;;3.47;;
34405;SDS011;20658;45.630;8.886;2023-09-19T15:48:23;8.20;;;3.78;;
34405;SDS011;20658;45.630;8.886;2023-09-19T15:50:51;9.02;;;3.45;;
34405;SDS011;20658;45.630;8.886;2023-09-19T15:53:26;8.07;;;3.35;;
34405;SDS011;20658;45.630;8.886;2023-09-19T15:56:01;7.47;;;3.00;;